Time;durP1;ratioP1;P1;durP2;ratioP2;P2;SDS_P1;SDS_P2;PMS_P1;PMS_P2;Temp;Humidity;BMP_temperature;BMP_pressure;BME280_temperature;BME280_humidity;BME280_pressure;Samples;Min_cycle;Max_cycle;Signal;HPM_P1;HPM_P2
2022/08/11 00:00:35;;;;;;;4.07;2.70;;;;;;;;;;5012719;28;20054;-48
2022/08/11 00:03:06;;;;;;;4.25;2.55;;;;;;;;;;5014327;28;20057;-49
2022/08/11 00:05:47;;;;;;;5.20;2.30;;;;;;;;;;5016385;28;20159;-48
2022/08/11 00:08:21;;;;;;;4.40;2.13;;;;;;;;;;5021478;28;20462;-50
2022/08/11 00:10:51;;;;;;;4.57;2.07;;;;;;;;;;5036382;28;20084;-48
2022/08/11 00:13:20;;;;;;;4.25;2.47;;;;;;;;;;5032679;28;20046;-46
2022/08/11 00:15:50;;;;;;;5.68;2.33;;;;;;;;;;5015671;28;20045;-49
2022/08/11 00:18:20;;;;;;;4.47;2.38;;;;;;;;;;5016304;28;20046;-50
2022/08/11 00:21:00;;;;;;;4.38;2.60;;;;;;;;;;5016040;28;20537;-48
2022/08/11 00:23:30;;;;;;;4.65;2.60;;;;;;;;;;5016225;28;20054;-48
2022/08/11 00:26:01;;;;;;;4.15;2.13;;;;;;;;;;5014817;28;20092;-47
2022/08/11 00:28:32;;;;;;;4.10;2.40;;;;;;;;;;5016071;28;20049;-49
2022/08/11 00:30:59;;;;;;;4.22;2.50;;;;;;;;;;5016047;28;20137;-49
2022/08/11 00:33:34;;;;;;;4.03;2.60;;;;;;;;;;5015255;28;20057;-48
2022/08/11 00:36:05;;;;;;;4.75;2.25;;;;;;;;;;5016084;28;20390;-51
2022/08/11 00:38:34;;;;;;;6.75;2.70;;;;;;;;;;5023352;28;20060;-50
2022/08/11 00:41:10;;;;;;;5.30;3.00;;;;;;;;;;5035797;28;20131;-50
2022/08/11 00:44:02;;;;;;;4.35;2.40;;;;;;;;;;5035819;28;20167;-47
2022/08/11 00:46:37;;;;;;;4.32;2.67;;;;;;;;;;5022659;28;20050;-50
2022/08/11 00:49:11;;;;;;;4.07;2.70;;;;;;;;;;5015703;28;20145;-48
2022/08/11 00:51:52;;;;;;;9.02;2.67;;;;;;;;;;5007763;28;20262;-47
2022/08/11 00:54:31;;;;;;;4.35;2.50;;;;;;;;;;5015037;28;20060;-47
2022/08/11 00:57:22;;;;;;;5.05;2.50;;;;;;;;;;5015558;28;20079;-48
2022/08/11 01:00:04;;;;;;;4.43;2.20;;;;;;;;;;5015363;28;20356;-49
2022/08/11 01:03:00;;;;;;;5.97;2.33;;;;;;;;;;4995454;28;20059;-47
2022/08/11 01:05:43;;;;;;;3.45;2.47;;;;;;;;;;4972584;28;20064;-50
2022/08/11 01:08:32;;;;;;;4.50;1.90;;;;;;;;;;4994667;28;20117;-50
2022/08/11 01:11:17;;;;;;;6.43;2.40;;;;;;;;;;5008868;28;20050;-48
2022/08/11 01:14:04;;;;;;;4.72;2.45;;;;;;;;;;5008357;28;20076;-46
2022/08/11 01:16:52;;;;;;;6.05;3.20;;;;;;;;;;4954588;29;20061;-50
2022/08/11 01:19:35;;;;;;;4.43;2.38;;;;;;;;;;4995528;28;20050;-46
2022/08/11 01:22:20;;;;;;;5.57;2.65;;;;;;;;;;4994691;28;20378;-49
2022/08/11 01:25:06;;;;;;;7.35;3.22;;;;;;;;;;5014064;28;20060;-48
2022/08/11 01:27:51;;;;;;;5.05;2.45;;;;;;;;;;5014757;28;20053;-50
2022/08/11 01:30:45;;;;;;;4.93;2.72;;;;;;;;;;5014678;28;20513;-48
2022/08/11 01:33:29;;;;;;;3.85;2.28;;;;;;;;;;5014993;28;20128;-47
2022/08/11 01:36:32;;;;;;;8.25;2.67;;;;;;;;;;5014930;28;20050;-50
2022/08/11 01:39:13;;;;;;;6.90;2.70;;;;;;;;;;5014642;28;20053;-46
2022/08/11 01:45:03;;;;;;;7.47;3.47;;;;;;;;;;5014566;28;20172;-50
2022/08/11 01:50:25;;;;;;;4.72;2.75;;;;;;;;;;5014429;28;20089;-49
2022/08/11 01:53:23;;;;;;;8.85;4.18;;;;;;;;;;5014419;28;20064;-50
2022/08/11 01:56:17;;;;;;;10.05;4.85;;;;;;;;;;5014743;28;20061;-49
2022/08/11 01:58:48;;;;;;;6.75;4.38;;;;;;;;;;5014569;28;20060;-50
2022/08/11 02:01:31;;;;;;;6.55;4.15;;;;;;;;;;5014471;28;20068;-47
2022/08/11 02:04:04;;;;;;;7.43;3.55;;;;;;;;;;5012165;28;20054;-50
2022/08/11 02:07:01;;;;;;;7.82;2.83;;;;;;;;;;5014299;28;20064;-45
2022/08/11 02:09:49;;;;;;;5.65;3.33;;;;;;;;;;5014439;28;20089;-49
2022/08/11 02:12:22;;;;;;;5.18;3.40;;;;;;;;;;5014084;28;20409;-50
2022/08/11 02:14:57;;;;;;;8.50;4.32;;;;;;;;;;4998537;28;20626;-49
2022/08/11 02:17:37;;;;;;;5.50;3.53;;;;;;;;;;4994417;28;20062;-47
2022/08/11 02:26:03;;;;;;;6.10;3.75;;;;;;;;;;5013447;28;20077;-47
2022/08/11 02:28:34;;;;;;;7.90;4.35;;;;;;;;;;5014037;28;20053;-47
2022/08/11 02:33:52;;;;;;;7.82;3.85;;;;;;;;;;5013562;28;20480;-46
2022/08/11 02:36:22;;;;;;;8.10;3.85;;;;;;;;;;5013994;28;20045;-47
2022/08/11 02:38:53;;;;;;;6.85;3.22;;;;;;;;;;5013709;28;20049;-48
2022/08/11 02:44:16;;;;;;;7.35;3.80;;;;;;;;;;5023916;28;20057;-46
2022/08/11 02:47:13;;;;;;;7.60;3.43;;;;;;;;;;5013511;28;20072;-47
2022/08/11 02:49:54;;;;;;;7.50;3.47;;;;;;;;;;5013395;28;20065;-47
2022/08/11 02:52:47;;;;;;;7.00;4.00;;;;;;;;;;5001169;28;20076;-48
2022/08/11 02:55:23;;;;;;;7.05;3.50;;;;;;;;;;5013221;28;20054;-46
2022/08/11 02:58:12;;;;;;;7.40;3.63;;;;;;;;;;5013118;28;20379;-48
2022/08/11 03:00:49;;;;;;;6.28;3.47;;;;;;;;;;5012865;28;20430;-46
2022/08/11 03:03:23;;;;;;;5.30;3.30;;;;;;;;;;5012779;28;20100;-49
2022/08/11 03:05:54;;;;;;;7.63;3.20;;;;;;;;;;5019904;28;20385;-48
2022/08/11 03:08:41;;;;;;;5.68;3.60;;;;;;;;;;5033349;28;20127;-47
2022/08/11 03:17:05;;;;;;;5.15;3.05;;;;;;;;;;5013331;28;20061;-47
2022/08/11 03:19:53;;;;;;;4.95;3.28;;;;;;;;;;5013098;28;20054;-50
2022/08/11 03:22:23;;;;;;;5.72;3.20;;;;;;;;;;5013273;28;20057;-46
2022/08/11 03:24:58;;;;;;;5.72;3.67;;;;;;;;;;5012801;28;20123;-50
2022/08/11 03:28:02;;;;;;;6.28;3.70;;;;;;;;;;5013317;28;20053;-49
2022/08/11 03:30:37;;;;;;;5.68;3.53;;;;;;;;;;4993688;28;20100;-46
2022/08/11 03:36:08;;;;;;;6.15;2.85;;;;;;;;;;4992934;28;20382;-47
2022/08/11 03:39:12;;;;;;;7.40;4.00;;;;;;;;;;4995776;28;20056;-46
2022/08/11 03:41:43;;;;;;;4.32;3.33;;;;;;;;;;5016496;28;20041;-50
2022/08/11 03:44:17;;;;;;;7.30;4.45;;;;;;;;;;5016945;28;20049;-47
2022/08/11 03:46:56;;;;;;;12.60;4.18;;;;;;;;;;5016788;28;20116;-46
2022/08/11 03:49:33;;;;;;;7.93;4.32;;;;;;;;;;5016754;28;20062;-46
2022/08/11 03:52:10;;;;;;;8.32;3.90;;;;;;;;;;5001624;28;20140;-49
2022/08/11 03:54:45;;;;;;;7.38;3.85;;;;;;;;;;5016974;28;20162;-50
2022/08/11 03:57:33;;;;;;;9.18;3.55;;;;;;;;;;5016836;28;20173;-49
2022/08/11 04:00:23;;;;;;;5.93;3.45;;;;;;;;;;5016373;28;20061;-49
2022/08/11 04:03:24;;;;;;;6.30;3.65;;;;;;;;;;4997158;28;20058;-48
2022/08/11 04:06:23;;;;;;;9.05;4.03;;;;;;;;;;4996317;28;20374;-49
2022/08/11 04:09:16;;;;;;;9.05;4.28;;;;;;;;;;4963949;28;20061;-48
2022/08/11 04:12:02;;;;;;;6.90;3.97;;;;;;;;;;4993721;28;20054;-48
2022/08/11 04:18:01;;;;;;;6.40;3.30;;;;;;;;;;5016244;28;20111;-48
2022/08/11 04:20:52;;;;;;;5.57;3.10;;;;;;;;;;5016410;28;20065;-49
2022/08/11 04:23:34;;;;;;;5.85;3.30;;;;;;;;;;5016341;28;20058;-49
2022/08/11 04:26:34;;;;;;;5.28;2.85;;;;;;;;;;5012627;28;20058;-48
2022/08/11 04:29:11;;;;;;;8.40;3.92;;;;;;;;;;4936027;29;20153;-49
2022/08/11 04:31:41;;;;;;;9.75;3.80;;;;;;;;;;4936292;29;20132;-50
2022/08/11 04:34:31;;;;;;;4.75;2.92;;;;;;;;;;4936258;29;20051;-50
2022/08/11 04:40:15;;;;;;;7.13;3.80;;;;;;;;;;4936296;29;20066;-50
2022/08/11 04:46:16;;;;;;;8.40;3.33;;;;;;;;;;4990567;28;20036;-49
2022/08/11 05:03:52;;;;;;;7.25;3.20;;;;;;;;;;5015358;28;20139;-50
2022/08/11 05:06:45;;;;;;;34.22;5.25;;;;;;;;;;4977977;28;20057;-50
2022/08/11 05:09:22;;;;;;;60.58;7.90;;;;;;;;;;5014945;28;20050;-50
2022/08/11 05:12:18;;;;;;;10.60;3.58;;;;;;;;;;5015183;28;20061;-47
2022/08/11 05:34:57;;;;;;;4.80;2.28;;;;;;;;;;4935152;29;20062;-48
2022/08/11 05:37:28;;;;;;;9.75;3.63;;;;;;;;;;4935187;29;20195;-46
2022/08/11 05:56:33;;;;;;;8.93;2.13;;;;;;;;;;5011915;28;20053;-47
2022/08/11 05:59:02;;;;;;;8.00;2.28;;;;;;;;;;5014575;28;20054;-49
2022/08/11 06:01:42;;;;;;;4.97;2.20;;;;;;;;;;5002124;28;20054;-46
2022/08/11 06:04:14;;;;;;;5.00;1.73;;;;;;;;;;4995058;28;20121;-50
2022/08/11 06:06:49;;;;;;;3.60;1.80;;;;;;;;;;4994719;28;20105;-50
2022/08/11 06:09:20;;;;;;;3.50;1.77;;;;;;;;;;4994472;28;20121;-48
2022/08/11 06:11:51;;;;;;;2.92;1.60;;;;;;;;;;4994604;28;20062;-49
2022/08/11 06:14:21;;;;;;;3.20;1.70;;;;;;;;;;5006147;28;20081;-48
2022/08/11 06:16:53;;;;;;;3.17;1.70;;;;;;;;;;5014151;28;20050;-49
2022/08/11 06:19:23;;;;;;;4.35;2.00;;;;;;;;;;5014131;28;20057;-48
2022/08/11 06:21:53;;;;;;;3.58;1.80;;;;;;;;;;5013426;28;20053;-47
2022/08/11 06:24:22;;;;;;;3.15;1.63;;;;;;;;;;5013621;28;20112;-48
2022/08/11 06:26:52;;;;;;;2.63;1.85;;;;;;;;;;5013302;28;20085;-47
2022/08/11 06:29:22;;;;;;;2.00;1.20;;;;;;;;;;5017286;28;20052;-51
2022/08/11 06:32:01;;;;;;;5.13;1.70;;;;;;;;;;5018539;28;20107;-47
2022/08/11 06:34:47;;;;;;;7.57;2.53;;;;;;;;;;5013645;28;20050;-47
2022/08/11 06:37:26;;;;;;;4.13;1.88;;;;;;;;;;5029245;28;20068;-47
2022/08/11 06:39:57;;;;;;;3.03;1.85;;;;;;;;;;5033161;28;20355;-47
2022/08/11 06:42:47;;;;;;;3.30;1.65;;;;;;;;;;5033411;28;20079;-47
2022/08/11 06:45:20;;;;;;;4.72;2.15;;;;;;;;;;5025702;28;20065;-47
2022/08/11 06:48:05;;;;;;;3.17;1.50;;;;;;;;;;5012161;28;20050;-47
2022/08/11 06:53:19;;;;;;;3.95;1.50;;;;;;;;;;5007968;28;20433;-47
2022/08/11 07:01:34;;;;;;;4.30;1.90;;;;;;;;;;5012786;28;20057;-48
2022/08/11 07:04:12;;;;;;;3.10;1.92;;;;;;;;;;5013143;28;20054;-52
2022/08/11 07:15:44;;;;;;;3.58;1.90;;;;;;;;;;5012889;28;20057;-50
2022/08/11 07:29:35;;;;;;;8.32;2.25;;;;;;;;;;5012527;28;20076;-51
2022/08/11 07:32:08;;;;;;;3.90;1.55;;;;;;;;;;5012094;28;20054;-47
2022/08/11 07:34:37;;;;;;;22.67;2.78;;;;;;;;;;5012951;28;20053;-48
2022/08/11 07:37:12;;;;;;;8.15;2.10;;;;;;;;;;5012950;28;20061;-49
2022/08/11 07:39:44;;;;;;;6.80;1.92;;;;;;;;;;5012843;28;20064;-50
2022/08/11 07:42:11;;;;;;;3.33;1.95;;;;;;;;;;5011733;28;20050;-50
2022/08/11 07:52:54;;;;;;;3.22;1.60;;;;;;;;;;5004238;28;20049;-50
2022/08/11 07:55:26;;;;;;;2.50;1.48;;;;;;;;;;5012791;28;20124;-49
2022/08/11 08:20:06;;;;;;;2.28;1.50;;;;;;;;;;5017830;28;20069;-50
2022/08/11 08:22:34;;;;;;;3.08;1.65;;;;;;;;;;5014789;28;20896;-51
2022/08/11 08:25:10;;;;;;;5.43;2.13;;;;;;;;;;5029891;28;20053;-47
2022/08/11 08:27:46;;;;;;;3.35;2.00;;;;;;;;;;5030587;28;20137;-47
2022/08/11 08:33:02;;;;;;;5.55;2.63;;;;;;;;;;5016390;28;20084;-49
2022/08/11 08:35:30;;;;;;;6.13;2.00;;;;;;;;;;5026908;28;20073;-48
2022/08/11 08:37:59;;;;;;;12.73;2.13;;;;;;;;;;5027467;28;20401;-51
2022/08/11 08:40:43;;;;;;;14.27;3.35;;;;;;;;;;5021996;28;20062;-47
2022/08/11 08:43:14;;;;;;;6.68;2.60;;;;;;;;;;5030872;28;20093;-46
2022/08/11 08:45:42;;;;;;;5.65;2.20;;;;;;;;;;5017261;28;20121;-47
2022/08/11 08:48:12;;;;;;;7.03;2.38;;;;;;;;;;5021870;28;20086;-47
2022/08/11 08:53:32;;;;;;;4.22;2.42;;;;;;;;;;5018024;28;20597;-47
2022/08/11 08:56:07;;;;;;;5.20;2.20;;;;;;;;;;5023843;28;20058;-47
2022/08/11 08:58:36;;;;;;;4.97;2.08;;;;;;;;;;5012756;28;20056;-47
2022/08/11 09:01:06;;;;;;;6.63;2.10;;;;;;;;;;5027041;28;20057;-48
2022/08/11 09:03:36;;;;;;;5.43;1.80;;;;;;;;;;5008207;28;20064;-50
2022/08/11 09:06:06;;;;;;;6.05;2.08;;;;;;;;;;5016782;28;20050;-51
2022/08/11 09:08:35;;;;;;;5.93;1.95;;;;;;;;;;5007138;28;20474;-50
2022/08/11 09:13:58;;;;;;;3.75;2.00;;;;;;;;;;5012467;28;20156;-49
2022/08/11 09:16:29;;;;;;;15.35;2.72;;;;;;;;;;5022946;28;20371;-51
2022/08/11 09:18:59;;;;;;;3.40;2.00;;;;;;;;;;5015298;28;20062;-49
2022/08/11 09:21:25;;;;;;;9.52;2.63;;;;;;;;;;5003425;28;20137;-50
2022/08/11 09:29:29;;;;;;;3.78;1.95;;;;;;;;;;5005820;28;20120;-48
2022/08/11 09:31:59;;;;;;;8.10;2.08;;;;;;;;;;5020732;28;20068;-51
2022/08/11 09:34:30;;;;;;;27.23;3.15;;;;;;;;;;5003428;28;20104;-49
2022/08/11 09:45:28;;;;;;;8.80;1.85;;;;;;;;;;5006291;28;20099;-51
2022/08/11 09:48:06;;;;;;;6.43;1.67;;;;;;;;;;5001597;28;20402;-47
2022/08/11 09:50:38;;;;;;;3.78;1.67;;;;;;;;;;5012264;28;20049;-48
2022/08/11 09:53:12;;;;;;;4.70;1.35;;;;;;;;;;5006642;28;20054;-49
2022/08/11 09:55:40;;;;;;;2.58;1.35;;;;;;;;;;5006752;28;20108;-49
2022/08/11 09:58:16;;;;;;;4.32;1.40;;;;;;;;;;5001030;28;20060;-51
2022/08/11 10:00:47;;;;;;;4.30;1.95;;;;;;;;;;5026470;28;20151;-48
2022/08/11 10:03:24;;;;;;;4.35;1.33;;;;;;;;;;5022803;28;20056;-50
2022/08/11 10:08:39;;;;;;;5.25;1.48;;;;;;;;;;5022027;28;20516;-50
2022/08/11 10:11:12;;;;;;;3.15;1.33;;;;;;;;;;5028083;28;20064;-48
2022/08/11 10:16:24;;;;;;;3.10;1.00;;;;;;;;;;5004250;28;20540;-50
2022/08/11 10:18:55;;;;;;;3.67;1.30;;;;;;;;;;5011806;28;20053;-49
2022/08/11 10:21:27;;;;;;;4.38;1.30;;;;;;;;;;5019505;28;20058;-50
2022/08/11 10:26:53;;;;;;;3.08;1.27;;;;;;;;;;5018194;28;20064;-48
2022/08/11 10:35:07;;;;;;;1.65;0.82;;;;;;;;;;5008212;28;20060;-48
2022/08/11 10:37:38;;;;;;;5.13;1.08;;;;;;;;;;5026281;28;20056;-48
2022/08/11 10:40:09;;;;;;;3.83;0.95;;;;;;;;;;5009426;28;20137;-48
2022/08/11 10:48:15;;;;;;;6.25;1.10;;;;;;;;;;5019283;28;20115;-50
2022/08/11 10:59:07;;;;;;;2.00;0.82;;;;;;;;;;5009375;28;20108;-47
2022/08/11 11:01:49;;;;;;;4.13;0.80;;;;;;;;;;4997360;28;20128;-47
2022/08/11 11:04:18;;;;;;;0.95;0.50;;;;;;;;;;5019395;28;20081;-48
2022/08/11 11:06:49;;;;;;;1.83;0.90;;;;;;;;;;5020105;28;20056;-47
2022/08/11 11:09:19;;;;;;;3.35;0.65;;;;;;;;;;5019070;28;20386;-48
2022/08/11 11:20:13;;;;;;;4.00;0.70;;;;;;;;;;5019941;28;20132;-50
2022/08/11 11:22:46;;;;;;;4.32;0.77;;;;;;;;;;5023170;28;20049;-50
2022/08/11 11:25:30;;;;;;;1.97;0.73;;;;;;;;;;5015613;28;20057;-47
2022/08/11 11:28:12;;;;;;;1.92;0.80;;;;;;;;;;5016897;28;20085;-50
2022/08/11 11:30:55;;;;;;;12.18;1.30;;;;;;;;;;5011823;28;20054;-50
2022/08/11 11:33:28;;;;;;;2.53;0.70;;;;;;;;;;5020219;28;20164;-50
2022/08/11 11:36:04;;;;;;;1.58;0.60;;;;;;;;;;5011170;28;20515;-50
2022/08/11 11:38:31;;;;;;;2.70;0.65;;;;;;;;;;5020959;28;20637;-48
2022/08/11 11:43:46;;;;;;;1.80;0.90;;;;;;;;;;5016117;28;20107;-48
2022/08/11 11:46:21;;;;;;;2.95;0.90;;;;;;;;;;5021192;28;20056;-48
2022/08/11 11:48:52;;;;;;;40.30;5.03;;;;;;;;;;5020854;28;20053;-48
2022/08/11 11:51:21;;;;;;;3.22;1.00;;;;;;;;;;5021729;28;20536;-48
2022/08/11 11:53:50;;;;;;;3.00;0.85;;;;;;;;;;5015496;28;20069;-52
2022/08/11 11:56:21;;;;;;;1.40;0.60;;;;;;;;;;5022736;28;20151;-50
2022/08/11 12:01:34;;;;;;;1.65;0.75;;;;;;;;;;5023434;28;20044;-51
2022/08/11 12:04:15;;;;;;;4.53;0.80;;;;;;;;;;5033404;28;20056;-48
2022/08/11 12:06:43;;;;;;;12.50;1.55;;;;;;;;;;5011571;28;20060;-51
2022/08/11 12:09:14;;;;;;;1.63;0.77;;;;;;;;;;5014356;28;20057;-48
2022/08/11 12:14:27;;;;;;;3.20;1.00;;;;;;;;;;5008531;28;20553;-51
2022/08/11 12:16:55;;;;;;;1.55;0.80;;;;;;;;;;5025972;28;20041;-47
2022/08/11 12:19:27;;;;;;;3.38;0.90;;;;;;;;;;5018256;28;20050;-47
2022/08/11 12:27:36;;;;;;;4.18;0.98;;;;;;;;;;4990387;28;20539;-47
2022/08/11 12:30:08;;;;;;;2.20;0.75;;;;;;;;;;5000734;28;20129;-51
2022/08/11 12:32:37;;;;;;;3.67;1.10;;;;;;;;;;5001005;28;20166;-47
2022/08/11 12:35:17;;;;;;;2.70;0.90;;;;;;;;;;4984676;28;20069;-47
2022/08/11 12:37:47;;;;;;;2.45;0.70;;;;;;;;;;4998298;28;20046;-48
2022/08/11 12:45:49;;;;;;;2.38;1.05;;;;;;;;;;4995284;28;20375;-48
2022/08/11 12:53:57;;;;;;;3.33;0.95;;;;;;;;;;4977269;28;20214;-49
2022/08/11 13:04:58;;;;;;;;;;;;;;;;;;5005742;28;20057;-50
2022/08/11 13:07:35;;;;;;;3.83;0.95;;;;;;;;;;4985210;28;19932;-48
2022/08/11 13:10:06;;;;;;;1.73;0.82;;;;;;;;;;4989025;28;20054;-48
2022/08/11 13:12:47;;;;;;;1.17;0.50;;;;;;;;;;4989229;28;20066;-50
2022/08/11 13:15:23;;;;;;;2.50;0.80;;;;;;;;;;4995616;28;20081;-48
2022/08/11 13:17:51;;;;;;;1.40;0.80;;;;;;;;;;4982823;28;20713;-48
2022/08/11 13:20:27;;;;;;;1.60;0.70;;;;;;;;;;4996879;28;20081;-48
2022/08/11 13:23:02;;;;;;;1.92;0.93;;;;;;;;;;5000582;28;20046;-48
2022/08/11 13:25:32;;;;;;;2.63;0.63;;;;;;;;;;5004933;28;20435;-48
2022/08/11 13:28:03;;;;;;;29.63;3.53;;;;;;;;;;5023387;28;20054;-50
2022/08/11 13:33:25;;;;;;;2.55;0.98;;;;;;;;;;5011629;28;20561;-50
2022/08/11 13:35:54;;;;;;;2.70;0.75;;;;;;;;;;5020463;28;20053;-50
2022/08/11 13:38:36;;;;;;;0.90;0.65;;;;;;;;;;5024595;28;20393;-47
2022/08/11 13:41:36;;;;;;;1.95;0.70;;;;;;;;;;5023115;28;20065;-48
2022/08/11 13:43:56;;;;;;;3.47;0.80;;;;;;;;;;5019658;28;20061;-50
2022/08/11 13:46:26;;;;;;;2.75;1.67;;;;;;;;;;5018337;28;20049;-48
2022/08/11 13:48:53;;;;;;;0.98;0.60;;;;;;;;;;5019299;28;20060;-47
2022/08/11 13:51:37;;;;;;;1.40;0.98;;;;;;;;;;5017125;28;20056;-50
2022/08/11 13:54:20;;;;;;;2.10;0.70;;;;;;;;;;5023217;28;20477;-48
2022/08/11 13:56:48;;;;;;;2.85;0.88;;;;;;;;;;5026645;28;20081;-50
2022/08/11 13:59:15;;;;;;;4.43;1.10;;;;;;;;;;5014448;28;20061;-49
2022/08/11 14:01:46;;;;;;;2.78;0.70;;;;;;;;;;5020042;28;20049;-48
2022/08/11 14:04:16;;;;;;;3.00;0.88;;;;;;;;;;5005807;28;20049;-48
2022/08/11 14:06:53;;;;;;;2.42;0.95;;;;;;;;;;5008152;28;20045;-48
2022/08/11 14:09:24;;;;;;;1.90;0.95;;;;;;;;;;5009191;28;20060;-49
2022/08/11 14:14:40;;;;;;;57.10;4.38;;;;;;;;;;5010118;28;20177;-51
2022/08/11 14:17:11;;;;;;;3.53;0.75;;;;;;;;;;5014421;28;20054;-48
2022/08/11 14:19:43;;;;;;;60.25;4.35;;;;;;;;;;5020497;28;20058;-50
2022/08/11 14:22:12;;;;;;;3.92;0.90;;;;;;;;;;5016833;28;20054;-49
2022/08/11 14:24:44;;;;;;;1.92;0.85;;;;;;;;;;5020331;28;20054;-50
2022/08/11 14:27:14;;;;;;;1.90;0.93;;;;;;;;;;5013783;28;20061;-47
2022/08/11 14:29:44;;;;;;;3.60;1.17;;;;;;;;;;5017509;28;20049;-47
2022/08/11 14:32:16;;;;;;;1.20;0.80;;;;;;;;;;4996130;28;20081;-47
2022/08/11 14:34:43;;;;;;;6.40;1.13;;;;;;;;;;5006203;28;20089;-47
2022/08/11 14:37:16;;;;;;;25.60;2.38;;;;;;;;;;5016943;28;20046;-48
2022/08/11 14:39:47;;;;;;;37.08;3.95;;;;;;;;;;5009558;28;20115;-47
2022/08/11 14:47:48;;;;;;;7.05;0.98;;;;;;;;;;5013289;28;20126;-49
2022/08/11 14:50:25;;;;;;;1.52;0.98;;;;;;;;;;5026450;28;20068;-51
2022/08/11 14:52:56;;;;;;;1.83;0.82;;;;;;;;;;5013832;28;20061;-50
2022/08/11 14:58:17;;;;;;;3.15;0.93;;;;;;;;;;5022580;28;20056;-49
2022/08/11 15:00:47;;;;;;;1.70;1.10;;;;;;;;;;5017879;28;20133;-47
2022/08/11 15:03:14;;;;;;;1.63;0.90;;;;;;;;;;5021774;28;20057;-48
2022/08/11 15:05:46;;;;;;;1.70;1.23;;;;;;;;;;5026923;28;20083;-49
2022/08/11 15:08:15;;;;;;;4.10;0.90;;;;;;;;;;5013959;28;20053;-50
2022/08/11 15:10:52;;;;;;;20.17;2.65;;;;;;;;;;5021756;28;20131;-48
2022/08/11 15:13:28;;;;;;;2.25;1.02;;;;;;;;;;5020598;28;20065;-48
2022/08/11 15:18:43;;;;;;;2.67;0.90;;;;;;;;;;5015930;28;20069;-48
2022/08/11 15:37:57;;;;;;;3.13;1.08;;;;;;;;;;5002005;28;20057;-49
2022/08/11 15:46:14;;;;;;;2.33;0.98;;;;;;;;;;5024431;28;20052;-50
2022/08/11 15:48:51;;;;;;;1.60;0.95;;;;;;;;;;5025242;28;20062;-47
2022/08/11 15:51:22;;;;;;;1.98;1.08;;;;;;;;;;5021202;28;20050;-47
2022/08/11 15:54:00;;;;;;;24.13;3.40;;;;;;;;;;5009407;28;20089;-47
2022/08/11 15:56:29;;;;;;;3.60;1.05;;;;;;;;;;5019254;28;20085;-47
2022/08/11 16:07:15;;;;;;;1.90;0.93;;;;;;;;;;5022985;28;20068;-48
2022/08/11 16:09:46;;;;;;;7.68;1.20;;;;;;;;;;5024261;28;20062;-46
2022/08/11 16:12:17;;;;;;;2.95;1.02;;;;;;;;;;5017241;28;20050;-47
2022/08/11 16:17:37;;;;;;;2.05;0.82;;;;;;;;;;5021310;28;20512;-47
2022/08/11 16:20:12;;;;;;;3.28;0.70;;;;;;;;;;5011026;28;20053;-46
2022/08/11 16:22:48;;;;;;;3.25;1.00;;;;;;;;;;5007282;28;20053;-48
2022/08/11 16:25:24;;;;;;;2.17;0.60;;;;;;;;;;5024470;28;20057;-48
2022/08/11 16:28:03;;;;;;;2.40;0.93;;;;;;;;;;5004456;28;20081;-48
2022/08/11 16:30:46;;;;;;;3.67;1.00;;;;;;;;;;5013521;28;20057;-50
2022/08/11 16:33:15;;;;;;;3.20;0.80;;;;;;;;;;5024035;28;20054;-48
2022/08/11 16:38:38;;;;;;;1.15;0.60;;;;;;;;;;5022233;28;20488;-52
2022/08/11 16:41:08;;;;;;;6.88;1.10;;;;;;;;;;5029008;28;20072;-51
2022/08/11 16:49:16;;;;;;;1.77;1.02;;;;;;;;;;5024371;28;20139;-49
2022/08/11 16:51:45;;;;;;;23.92;3.00;;;;;;;;;;5026189;28;20128;-52
2022/08/11 16:54:15;;;;;;;5.97;1.33;;;;;;;;;;5027517;28;20049;-49
2022/08/11 16:56:46;;;;;;;1.67;0.88;;;;;;;;;;5019486;28;20046;-49
2022/08/11 16:59:16;;;;;;;2.05;1.17;;;;;;;;;;5023504;28;20046;-49
2022/08/11 17:02:01;;;;;;;2.38;0.90;;;;;;;;;;5022141;28;20450;-49
2022/08/11 17:13:12;;;;;;;2.70;1.00;;;;;;;;;;4951380;28;20471;-49
2022/08/11 17:18:43;;;;;;;1.75;0.93;;;;;;;;;;4941706;28;20062;-52
2022/08/11 17:21:13;;;;;;;15.60;2.50;;;;;;;;;;4960404;28;20057;-49
2022/08/11 17:23:53;;;;;;;1.50;0.88;;;;;;;;;;4960182;28;20686;-52
2022/08/11 17:26:24;;;;;;;3.55;1.35;;;;;;;;;;5005927;28;20061;-49
2022/08/11 17:28:52;;;;;;;1.70;0.95;;;;;;;;;;5006558;28;20050;-49
2022/08/11 17:37:12;;;;;;;1.90;1.00;;;;;;;;;;5026466;28;20139;-50
2022/08/11 17:39:41;;;;;;;2.50;1.05;;;;;;;;;;5019748;28;20091;-50
2022/08/11 17:50:32;;;;;;;2.25;1.40;;;;;;;;;;5022468;28;20064;-52
2022/08/11 18:01:34;;;;;;;2.47;1.27;;;;;;;;;;4980734;28;20061;-50
2022/08/11 18:04:12;;;;;;;;;;;;;;;;;;4971196;28;20799;-52
2022/08/11 18:06:54;;;;;;;3.38;1.30;;;;;;;;;;4982203;28;19930;-51
